Tiempo atmosférico en la estación meteorológica de Castejon De Valdejasa, Zaragoza (442 m.)



Fecha
DESCASC
Temp. máxima en grados centígrados (hora)
DESCASC
Temp. mínima en grados centígrados (hora)
DESCASC
Temp. media en grados centígrados
DESCASC
Racha de viento máxima en m/sg (hora)
DESCASC
Velocidad máxima media en intervalos de 10 minutos(hora)
DESCASC
Precipitaciones diarias en mm
DESCASC
Precipitaciones de 00:00 a 06:00 en mm
DESCASC
Precipitaciones de 06:00 a 12:00 en mm
DESCASC
Precipitaciones de 12:00 a 18:00 en mm
DESCASC
Precipitaciones de 18:00 a 24:00 en mm
DESCASC
08-12-2019 10.6 (13:20) 4.2 (08:30) 7.4 14.44 (19:10) 8.33 (20:00) 1.4 0 0 1 0.4
07-12-2019 11.2 (15:40) 3.2 (06:50) 7.2 6.11 (15:20) 4.44 (15:30) 0 0 0 0 0
06-12-2019 13.9 (13:40) 3.4 (08:30) 8.6 5.28 (11:50) 3.89 (11:40) 0 0 0 0 0
05-12-2019 10.8 (15:40) 5 (00:00) 7.9 8.33 (14:40) 5.56 (14:20) 0 0 0 0 0
04-12-2019 8.3 (20:40) 1.6 (04:40) 5 8.89 (20:50) 4.72 (20:40) 0 0 0 0 0
03-12-2019 6.7 (16:10) 0.1 (00:00) 3.4 9.17 (00:20) 5.56 (00:50) 0 0 0 0 0
02-12-2019 11.4 (15:20) 1.4 (00:00) 6.4 11.11 (19:50) 6.67 (21:30) 0 0 0 0 0
01-12-2019 11.5 (12:00) 3.1 (00:00) 7.3 5.83 (12:50) 4.44 (12:50) 0.2 0.2 0 0 0
30-11-2019 15.1 (15:20) 6.8 (00:00) 11 14.72 (19:50) 7.5 (19:50) 4.2 0 0 0 4.2
29-11-2019 14.7 (14:30) 6.8 (00:00) 10.8 11.67 (14:30) 6.67 (06:40) 0 0 0 0 0
28-11-2019 14.5 (13:50) 7.2 (08:30) 10.8 10.56 (19:20) 7.78 (14:30) 0.2 0 0 0 0.2
27-11-2019 13.6 (14:30) 8.3 (00:00) 11 14.44 (03:50) 10.56 (03:10) 1.8 1.6 0 0 0.2
26-11-2019 16.7 (12:40) 6.9 (00:00) 11.8 10.56 (21:40) 5.83 (21:40) 3.8 0 0 0 3.8
25-11-2019 14.9 (14:30) 5.8 (08:50) 10.3 7.5 (13:10) 5 (15:20) 0 0 0 0 0
24-11-2019 10.6 (15:50) 4.5 (00:00) 7.6 12.22 (14:00) 8.06 (14:00) 1 0 0 0 1
23-11-2019 9.1 (03:20) 6.3 (00:00) 7.7 19.17 (16:50) 12.22 (13:10) 3.2 0 3.2 0 0
22-11-2019 9.3 (21:20) 5.1 (00:00) 7.2 15.28 (13:10) 11.11 (16:10) 4.8 0 1.2 1 2.6
21-11-2019 11.6 (14:10) 3.6 (00:00) 7.6 6.67 (12:00) 4.72 (00:10) 0 0 0 0 0
20-11-2019 8.8 (14:20) 1.7 (08:10) 5.3 10 (15:40) 7.5 (15:40) 0.6 0 0 0 0.6
19-11-2019 9.7 (14:40) 2 (00:00) 5.8 11.94 (05:30) 7.5 (15:00) 0 0 0 0 0
18-11-2019 8.4 (13:20) 3.4 (00:00) 5.9 13.89 (12:30) 8.33 (12:20) 1.2 1.2 0 0 0
17-11-2019 8.7 (14:00) 2.2 (00:00) 5.4 9.72 (00:10) 5.56 (01:00) 1.6 0 0 0.8 0.8
16-11-2019 6 (15:50) 0.6 (00:00) 3.3 9.17 (07:20) 6.11 (08:50) 0 0 0 0 0
15-11-2019 6.8 (12:10) 1.3 (00:00) 4.1 16.11 (14:50) 9.72 (14:50) 0 0 0 0 0
14-11-2019 10 (01:50) 3.1 (00:00) 6.5 16.11 (07:10) 10 (04:20) 5 1 4 0 0
13-11-2019 11.5 (14:20) 5.4 (00:00) 8.5 13.61 (09:50) 7.5 (08:50) 3.4 0.4 3 0 0
12-11-2019 10.3 (16:30) 4.7 (00:00) 7.5 13.33 (14:20) 7.78 (13:00) 0 0 0 0 0
11-11-2019 8.1 (16:40) 2.4 (04:20) 5.3 14.72 (18:10) 8.33 (18:20) 0.4 0 0 0.4 0

Gráficas

Temp. máximas Temp. mínimas Temp. medias Precipitaciones Rachas de viento máximas Velocidades máximas media en intervalos de 10 minutos

Datos horarios

Fecha y hora oficial Temperatura (ºC) Velocidad del viento (km/h) Dirección del viento Racha (km/h) Dirección de racha Precipitación (mm) Presión (hPa) Tendencia (hPa) Humedad (%)
2019-12-10 23:00:00 7.9 5 Oeste 10 Noroeste 0 -- -- 64
2019-12-10 22:00:00 7.9 8 Oeste 11 Oeste 0 -- -- 66
2019-12-10 21:00:00 8.3 3 Oeste 24 Oeste 0 -- -- 66
2019-12-10 20:00:00 8 6 Oeste 12 Oeste 0 -- -- 70
2019-12-10 19:00:00 8.4 11 Oeste 26 Noroeste 0 -- -- 72
2019-12-10 18:00:00 12 17 Noroeste 36 Noroeste 0 -- -- 49
2019-12-10 17:00:00 11.5 19 Noroeste 29 Noroeste 0 -- -- 55
2019-12-10 16:00:00 12.1 15 Oeste 29 Oeste 0 -- -- 56
2019-12-10 15:00:00 11.8 21 Oeste 44 Oeste 0 -- -- 61
2019-12-10 14:00:00 11.2 22 Oeste 36 Noroeste 0 -- -- 63
2019-12-10 13:00:00 9.8 24 Oeste 42 Oeste 0 -- -- 69
2019-12-10 12:00:00 8.5 24 Oeste 44 Oeste 0 -- -- 76
2019-12-10 11:00:00 7.1 25 Oeste 42 Oeste 0 -- -- 79
2019-12-10 10:00:00 6.4 19 Oeste 42 Oeste 0 -- -- 81
2019-12-10 09:00:00 5.8 30 Oeste 46 Oeste 0 -- -- 83
2019-12-10 08:00:00 5.7 27 Oeste 42 Oeste 0 -- -- 83
2019-12-10 07:00:00 5.9 23 Oeste 44 Oeste 0 -- -- 87
2019-12-10 06:00:00 6 30 Oeste 49 Oeste 0 -- -- 88
2019-12-10 05:00:00 6.1 27 Oeste 42 Oeste 0 -- -- 87
2019-12-10 04:00:00 5.6 18 Oeste 44 Oeste 0 -- -- 89
2019-12-10 03:00:00 6.6 30 Oeste 50 Oeste 0 -- -- 82
2019-12-10 02:00:00 6.5 31 Oeste 53 Oeste 0 -- -- 83
2019-12-10 01:00:00 6.9 21 Oeste 53 Noroeste 0 -- -- 81
2019-12-10 00:00:00 7 32 Noroeste 50 Oeste 0 -- -- 82
2019-12-09 23:00:00 6.9 24 Oeste 45 Oeste 0 -- -- 81
2019-12-09 22:00:00 6.8 23 Oeste 36 Oeste 0 -- -- 81
2019-12-09 21:00:00 6.4 16 Oeste 44 Noroeste 0 -- -- 81
2019-12-09 20:00:00 8 27 Noroeste 54 Noroeste 0 -- -- 74
2019-12-09 19:00:00 8.1 26 Noroeste 57 Oeste 0 -- -- 74
2019-12-09 18:00:00 8.3 26 Noroeste 50 Oeste 0 -- -- 75
2019-12-09 17:00:00 8.5 28 Oeste 44 Oeste 0 -- -- 79
2019-12-09 16:00:00 9.3 20 Oeste 50 Oeste 0 -- -- 76
2019-12-09 15:00:00 10.4 32 Oeste 58 Oeste 0 -- -- 72
2019-12-09 14:00:00 9.4 36 Oeste 62 Oeste 0 -- -- 78
2019-12-09 13:00:00 8.1 24 Oeste 52 Oeste 0 -- -- 81
2019-12-09 12:00:00 7.6 24 Oeste 42 Oeste 0 -- -- 81
2019-12-09 11:00:00 6.3 24 Oeste 33 Oeste 0 -- -- 84
2019-12-09 10:00:00 3.9 18 Oeste 23 Oeste 0 -- -- 98
2019-12-09 09:00:00 2.6 17 Oeste 23 Oeste 0 -- -- 96
2019-12-09 08:00:00 4.4 17 Oeste 23 Oeste 0 -- -- 92
2019-12-09 07:00:00 5.3 13 Oeste 22 Oeste 0 -- -- 90
2019-12-09 06:00:00 5.4 10 Oeste 19 Oeste 0 -- -- 92
2019-12-09 05:00:00 5.1 10 Oeste 19 Oeste 0 -- -- 88
2019-12-09 04:00:00 5 7 Oeste 19 Oeste 0 -- -- 90
2019-12-09 03:00:00 6.2 11 Oeste 28 Noroeste 0 -- -- 84
2019-12-09 02:00:00 5.4 13 Oeste 27 Oeste 0 -- -- 94
2019-12-09 01:00:00 7.4 14 Noroeste 29 Oeste 0 -- -- 83
2019-12-09 00:00:00 7.8 15 Oeste 33 Noroeste 0 -- -- 87
2019-12-08 23:00:00 8.7 20 Noroeste 40 Oeste 0 -- -- 84
2019-12-08 22:00:00 9 22 Noroeste 37 Noroeste 0 -- -- 87
2019-12-08 21:00:00 8.8 17 Oeste 41 Oeste 0 -- -- 96
2019-12-08 20:00:00 8.2 30 Oeste 52 Oeste 0 -- -- 95
2019-12-08 19:00:00 8.5 28 Noroeste 47 Oeste 0.4 -- -- 96
2019-12-08 18:00:00 8.2 20 Noroeste 30 Noroeste 0.8 -- -- 94
2019-12-08 17:00:00 8.9 14 Oeste 26 Noroeste 0.2 -- -- 91
2019-12-08 16:00:00 9.1 13 Oeste 30 Oeste 0 -- -- 86
2019-12-08 15:00:00 9.6 15 Oeste 26 Oeste 0 -- -- 77
2019-12-08 14:00:00 10.4 17 Oeste 22 Oeste 0 -- -- 77
2019-12-08 13:00:00 10 14 Sudoeste 22 Oeste 0 -- -- 79
2019-12-08 12:00:00 8.7 13 Oeste 15 Oeste 0 -- -- 83
2019-12-08 11:00:00 7.7 9 Oeste 12 Oeste 0 -- -- 88
2019-12-08 10:00:00 6.4 4 Oeste 7 Oeste 0 -- -- 91
2019-12-08 09:00:00 5 4 Este 8 Este 0 -- -- 95
2019-12-08 08:00:00 4.8 5 Este 9 Este 0 -- -- 94
2019-12-08 07:00:00 4.9 4 Este 6 Este 0 -- -- 94
2019-12-08 06:00:00 4.9 0 Calma 9 Este 0 -- -- 94
2019-12-08 05:00:00 5.4 5 Este 7 Este 0 -- -- 93
2019-12-08 04:00:00 5.6 0 Calma 7 Este 0 -- -- 94
2019-12-08 03:00:00 5.3 0 Calma 8 Este 0 -- -- 94
2019-12-08 02:00:00 5.4 0 Calma 8 Este 0 -- -- 91
2019-12-08 01:00:00 5.4 6 Este 9 Este 0 -- -- 90
2019-12-08 00:00:00 6.6 2 Este 6 Este 0 -- -- 90
2019-12-07 23:00:00 6.9 2 Este 7 Este 0 -- -- 91
2019-12-07 22:00:00 6.6 0 Calma 7 Este 0 -- -- 88
2019-12-07 21:00:00 6 6 Este 9 Este 0 -- -- 91
2019-12-07 20:00:00 6.9 5 Nordeste 10 Nordeste 0 -- -- 91
2019-12-07 19:00:00 7.5 2 Norte 6 Nordeste 0 -- -- 86
2019-12-07 18:00:00 9 3 Oeste 14 Oeste 0 -- -- 81
2019-12-07 17:00:00 10.5 12 Oeste 18 Oeste 0 -- -- 78
2019-12-07 16:00:00 11.2 15 Oeste 22 Oeste 0 -- -- 73
2019-12-07 15:00:00 11.1 14 Oeste 20 Oeste 0 -- -- 75
2019-12-07 14:00:00 9.8 14 Oeste 22 Oeste 0 -- -- 80
2019-12-07 13:00:00 9 14 Oeste 19 Oeste 0 -- -- 85
2019-12-07 12:00:00 7.5 14 Oeste 19 Oeste 0 -- -- 91
2019-12-07 11:00:00 7.2 11 Oeste 14 Oeste 0 -- -- 93
2019-12-07 10:00:00 6 2 Oeste 5 Oeste 0 -- -- 96
2019-12-07 09:00:00 4.5 3 Este 9 Nordeste 0 -- -- 96
2019-12-07 08:00:00 4.3 0 Calma 10 Este 0 -- -- 96
2019-12-07 07:00:00 3.6 10 Nordeste 11 Nordeste 0 -- -- 96
2019-12-07 06:00:00 4 8 Nordeste 9 Nordeste 0 -- -- 94
2019-12-07 05:00:00 5.4 0 Calma 12 Nordeste 0 -- -- 95
2019-12-07 04:00:00 5.8 4 Nordeste 11 Este 0 -- -- 95
2019-12-07 03:00:00 4.3 9 Este 13 Este 0 -- -- 93
2019-12-07 02:00:00 5.1 7 Este 11 Nordeste 0 -- -- 93
2019-12-07 01:00:00 6 4 Nordeste 12 Nordeste 0 -- -- 91
2019-12-07 00:00:00 5.9 9 Nordeste 13 Nordeste 0 -- -- 90
2019-12-06 23:00:00 6.2 9 Nordeste 15 Este 0 -- -- 93
2019-12-06 22:00:00 7 10 Nordeste 14 Nordeste 0 -- -- 89
2019-12-06 21:00:00 6.7 10 Nordeste 12 Nordeste 0 -- -- 85
2019-12-06 20:00:00 8 9 Nordeste 14 Nordeste 0 -- -- 86
2019-12-06 19:00:00 8.5 8 Nordeste 11 Nordeste 0 -- -- 84
2019-12-06 18:00:00 9.6 8 Este 10 Este 0 -- -- 82
2019-12-06 17:00:00 12 5 Oeste 13 Oeste 0 -- -- 74
2019-12-06 16:00:00 12.5 11 Oeste 14 Oeste 0 -- -- 72
2019-12-06 15:00:00 12.8 9 Oeste 17 Oeste 0 -- -- 70
2019-12-06 14:00:00 12.2 13 Oeste 16 Oeste 0 -- -- 74
2019-12-06 13:00:00 11.3 3 Oeste 17 Oeste 0 -- -- 74
2019-12-06 12:00:00 10 13 Oeste 19 Oeste 0 -- -- 77
2019-12-06 11:00:00 10.6 5 Sudeste 13 Nordeste 0 -- -- 73
2019-12-06 10:00:00 6.3 10 Nordeste 17 Nordeste 0 -- -- 86
2019-12-06 09:00:00 4.4 8 Nordeste 12 Nordeste 0 -- -- 92
2019-12-06 08:00:00 4.2 4 Nordeste 10 Nordeste 0 -- -- 90
2019-12-06 07:00:00 5.6 0 Calma 9 Oeste 0 -- -- 87
2019-12-06 06:00:00 6.2 0 Calma 9 Oeste 0 -- -- 86
2019-12-06 05:00:00 6.7 3 Oeste 12 Nordeste 0 -- -- 82
2019-12-06 04:00:00 6.6 6 Nordeste 9 Este 0 -- -- 84
2019-12-06 03:00:00 6.3 5 Nordeste 11 Nordeste 0 -- -- 85
2019-12-06 02:00:00 6.3 6 Nordeste 8 Nordeste 0 -- -- 84
2019-12-06 01:00:00 6.8 3 Este 4 Este 0 -- -- 84
2019-12-06 00:00:00 6.9 2 Este 4 Este 0 -- -- 84
2019-12-05 23:00:00 7.2 2 Sudeste 5 Oeste 0 -- -- 82
2019-12-05 22:00:00 7.7 4 Noroeste 9 Oeste 0 -- -- 80
2019-12-05 21:00:00 8 4 Oeste 15 Noroeste 0 -- -- 79
2019-12-05 20:00:00 8.6 9 Oeste 18 Oeste 0 -- -- 75
2019-12-05 19:00:00 8.7 8 Oeste 13 Noroeste 0 -- -- 77
2019-12-05 18:00:00 9.3 9 Noroeste 19 Oeste 0 -- -- 75
2019-12-05 17:00:00 10.2 11 Oeste 26 Oeste 0 -- -- 73
2019-12-05 16:00:00 10.7 19 Oeste 28 Oeste 0 -- -- 75
2019-12-05 15:00:00 10.3 18 Oeste 30 Oeste 0 -- -- 76
2019-12-05 14:00:00 8.8 16 Oeste 28 Oeste 0 -- -- 82
2019-12-05 13:00:00 8 16 Oeste 26 Oeste 0 -- -- 84
2019-12-05 12:00:00 7.7 14 Oeste 21 Oeste 0 -- -- 86
2019-12-05 11:00:00 6.3 12 Oeste 17 Oeste 0 -- -- 89
2019-12-05 10:00:00 5.6 10 Oeste 14 Oeste 0 -- -- 92
2019-12-05 09:00:00 5.2 6 Oeste 10 Oeste 0 -- -- 93
2019-12-05 08:00:00 5.1 4 Oeste 8 Oeste 0 -- -- 93
2019-12-05 07:00:00 5.2 0 Calma 5 Sudoeste 0 -- -- 92
2019-12-05 06:00:00 5.1 0 Calma 9 Oeste 0 -- -- 93
2019-12-05 05:00:00 5.1 4 Noroeste 11 Oeste 0 -- -- 93
2019-12-05 04:00:00 5.3 8 Oeste 15 Oeste 0 -- -- 92
2019-12-05 03:00:00 5.8 11 Oeste 17 Sudoeste 0 -- -- 91
2019-12-05 02:00:00 5.7 2 Sudoeste 15 Oeste 0 -- -- 93
2019-12-05 01:00:00 5.8 8 Oeste 15 Oeste 0 -- -- 92
2019-12-05 00:00:00 5.8 9 Oeste 15 Oeste 0 -- -- 92
2019-12-04 23:00:00 6 11 Oeste 19 Oeste 0 -- -- 89
2019-12-04 22:00:00 6.2 12 Oeste 22 Oeste 0 -- -- 85
2019-12-04 21:00:00 7.6 9 Sudoeste 32 Noroeste 0 -- -- 77
2019-12-04 20:00:00 7.3 7 Sudoeste 14 Oeste 0 -- -- 80
2019-12-04 19:00:00 6.7 3 Sudeste 5 Sudeste 0 -- -- 83
2019-12-04 18:00:00 6.6 2 Sudeste 7 Oeste 0 -- -- 83
2019-12-04 17:00:00 6.9 5 Noroeste 10 Oeste 0 -- -- 84
2019-12-04 16:00:00 6.9 5 Oeste 13 Oeste 0 -- -- 85
2019-12-04 15:00:00 6.4 3 Oeste 9 Oeste 0 -- -- 86
2019-12-04 14:00:00 5.9 4 Oeste 12 Sudoeste 0 -- -- 83
2019-12-04 13:00:00 5.5 8 Sudoeste 13 Sudoeste 0 -- -- 84
2019-12-04 12:00:00 4.9 5 Oeste 11 Oeste 0 -- -- 84
2019-12-04 11:00:00 4.3 9 Oeste 17 Sudoeste 0 -- -- 84
2019-12-04 10:00:00 3.9 4 Oeste 12 Oeste 0 -- -- 88
2019-12-04 09:00:00 2.7 0 Calma 4 Oeste 0 -- -- 93
2019-12-04 08:00:00 2.3 2 Este 5 Este 0 -- -- 94
2019-12-04 07:00:00 2.1 4 Oeste 6 Oeste 0 -- -- 93
2019-12-04 06:00:00 2 0 Calma 6 Este 0 -- -- 93
2019-12-04 05:00:00 1.8 4 Este 6 Nordeste 0 -- -- 93
2019-12-04 04:00:00 2 3 Este 5 Nordeste 0 -- -- 92
2019-12-04 03:00:00 2.6 3 Este 7 Nordeste 0 -- -- 91
2019-12-04 02:00:00 2.7 5 Este 7 Nordeste 0 -- -- 90
2019-12-04 01:00:00 2.8 6 Nordeste 7 Nordeste 0 -- -- 90
2019-12-04 00:00:00 2.9 6 Nordeste 8 Nordeste 0 -- -- 90
2019-12-03 23:00:00 2.6 7 Nordeste 9 Nordeste 0 -- -- 91
2019-12-03 22:00:00 2.5 8 Nordeste 12 Nordeste 0 -- -- 91
2019-12-03 21:00:00 3 5 Nordeste 9 Nordeste 0 -- -- 92
2019-12-03 20:00:00 2.6 8 Nordeste 10 Nordeste 0 -- -- 92
2019-12-03 19:00:00 2.3 7 Nordeste 11 Nordeste 0 -- -- 90
2019-12-03 18:00:00 3.5 5 Nordeste 10 Nordeste 0 -- -- 87
2019-12-03 17:00:00 6.3 3 Sudoeste 11 Sudoeste 0 -- -- 74
2019-12-03 16:00:00 6.6 7 Sudoeste 16 Oeste 0 -- -- 72
2019-12-03 15:00:00 6.1 11 Oeste 15 Oeste 0 -- -- 77
2019-12-03 14:00:00 5.6 10 Sudoeste 15 Sudoeste 0 -- -- 77
2019-12-03 13:00:00 5.2 6 Oeste 13 Sudoeste 0 -- -- 81
2019-12-03 12:00:00 4.3 10 Oeste 16 Oeste 0 -- -- 84
2019-12-03 11:00:00 4 13 Oeste 17 Oeste 0 -- -- 86
2019-12-03 10:00:00 2.5 9 Oeste 13 Oeste 0 -- -- 91
2019-12-03 09:00:00 1 8 Oeste 10 Oeste 0 -- -- 94
2019-12-03 08:00:00 0.2 5 Oeste 12 Oeste 0 -- -- 94
2019-12-03 07:00:00 0.2 9 Noroeste 15 Oeste 0 -- -- 94
2019-12-03 06:00:00 0.4 12 Oeste 22 Oeste 0 -- -- 92
2019-12-03 05:00:00 1.7 16 Oeste 29 Oeste 0 -- -- 90
2019-12-03 04:00:00 1 12 Oeste 22 Oeste 0 -- -- 93
2019-12-03 03:00:00 1.8 14 Oeste 32 Noroeste 0 -- -- 88
2019-12-03 02:00:00 2.6 15 Noroeste 30 Noroeste 0 -- -- 86
2019-12-03 01:00:00 2.8 18 Oeste 33 Oeste 0 -- -- 85
2019-12-03 00:00:00 2.4 14 Oeste 38 Oeste 0 -- -- 88
2019-12-02 23:00:00 3.4 20 Oeste 37 Oeste 0 -- -- 86
2019-12-02 22:00:00 3.7 21 Oeste 35 Oeste 0 -- -- 87
2019-12-02 21:00:00 3.8 17 Oeste 35 Oeste 0 -- -- 90
2019-12-02 20:00:00 4.8 21 Oeste 40 Oeste 0 -- -- 87
2019-12-02 19:00:00 5 15 Oeste 24 Noroeste 0 -- -- 88
2019-12-02 18:00:00 7.7 17 Noroeste 28 Noroeste 0 -- -- 74
2019-12-02 17:00:00 10 18 Oeste 31 Oeste 0 -- -- 70
2019-12-02 16:00:00 11.4 16 Oeste 29 Oeste 0 -- -- 64
2019-12-02 15:00:00 11.2 21 Oeste 31 Oeste 0 -- -- 65
2019-12-02 14:00:00 10.3 17 Oeste 24 Oeste 0 -- -- 73
2019-12-02 13:00:00 9.1 17 Oeste 21 Oeste 0 -- -- 81
2019-12-02 12:00:00 7.9 14 Oeste 22 Sudoeste 0 -- -- 82
2019-12-02 11:00:00 6.6 8 Sudoeste 12 Sudoeste 0 -- -- 95
2019-12-02 10:00:00 4.8 0 Calma 11 Este 0 -- -- 99
2019-12-02 09:00:00 1.7 8 Nordeste 11 Nordeste 0 -- -- 97
2019-12-02 08:00:00 2.2 5 Nordeste 9 Nordeste 0 -- -- 98
2019-12-02 07:00:00 1.9 6 Este 8 Este 0 -- -- 97
2019-12-02 06:00:00 1.8 6 Este 8 Este 0 -- -- 97
2019-12-02 05:00:00 2.1 4 Este 10 Nordeste 0 -- -- 97
2019-12-02 04:00:00 2.5 10 Nordeste 13 Nordeste 0 -- -- 95
2019-12-02 03:00:00 3.8 6 Nordeste 9 Nordeste 0 -- -- 96
2019-12-02 02:00:00 4.1 4 Este 6 Este 0 -- -- 95
2019-12-02 01:00:00 4.9 0 Calma 9 Oeste 0 -- -- 94
2019-12-02 00:00:00 5.7 5 Oeste 11 Oeste 0 -- -- 94
2019-12-01 23:00:00 5.8 8 Oeste 16 Oeste 0 -- -- 94
2019-12-01 22:00:00 6.7 0 Calma 6 Oeste 0 -- -- 94
2019-12-01 21:00:00 6.3 3 Sudeste 8 Oeste 0 -- -- 94
2019-12-01 20:00:00 6.6 2 Oeste 19 Oeste 0 -- -- 92
2019-12-01 19:00:00 6.8 0 Calma 15 Noroeste 0 -- -- 88
2019-12-01 18:00:00 7.9 7 Norte 19 Noroeste 0 -- -- 81
2019-12-01 17:00:00 9.1 9 Noroeste 18 Oeste 0 -- -- 80
2019-12-01 16:00:00 10.6 13 Oeste 21 Oeste 0 -- -- 73
2019-12-01 15:00:00 10.8 14 Oeste 21 Sudoeste 0 -- -- 69
2019-12-01 14:00:00 10.6 11 Oeste 20 Oeste 0 -- -- 81
2019-12-01 13:00:00 10.8 14 Oeste 21 Oeste 0 -- -- 82
2019-12-01 12:00:00 11.5 4 Sudoeste 14 Oeste 0 -- -- 74
2019-12-01 11:00:00 9.6 5 Este 9 Nordeste 0 -- -- 82
2019-12-01 10:00:00 6.9 6 Nordeste 13 Nordeste 0 -- -- 89
2019-12-01 09:00:00 5 10 Nordeste 14 Nordeste 0 -- -- 96
2019-12-01 08:00:00 3.2 13 Nordeste 15 Nordeste 0 -- -- 94
2019-12-01 07:00:00 3.2 12 Nordeste 14 Nordeste 0 -- -- 95
2019-12-01 06:00:00 3.8 9 Nordeste 14 Nordeste 0 -- -- 92
2019-12-01 05:00:00 5.2 9 Nordeste 14 Este 0 -- -- 90
2019-12-01 04:00:00 5.6 10 Nordeste 13 Nordeste 0 -- -- 90
2019-12-01 03:00:00 6.4 6 Nordeste 12 Oeste 0 -- -- 91
2019-12-01 02:00:00 7.3 9 Oeste 14 Oeste 0 -- -- 89
2019-12-01 01:00:00 7.9 7 Nordeste 15 Nordeste 0.2 -- -- 88
2019-12-01 00:00:00 8.1 3 Noroeste 8 Noroeste 0.4 -- -- 93
2019-11-30 23:00:00 8.2 6 Noroeste 12 Oeste 0 -- -- 93
2019-11-30 22:00:00 8.5 12 Oeste 28 Este 0 -- -- 91
2019-11-30 21:00:00 8.7 8 Oeste 39 Noroeste 0.4 -- -- 89
2019-11-30 20:00:00 9.4 25 Noroeste 53 Noroeste 3 -- -- 91
2019-11-30 19:00:00 11.8 6 Sur 20 Este 0.4 -- -- 82
2019-11-30 18:00:00 11.6 15 Este 25 Este 0 -- -- 80
2019-11-30 17:00:00 11.9 17 Este 32 Este 0 -- -- 76
2019-11-30 16:00:00 14.2 21 Este 30 Este 0 -- -- 69
2019-11-30 15:00:00 14.7 23 Este 32 Este 0 -- -- 67
2019-11-30 14:00:00 14.8 19 Este 31 Este 0 -- -- 67
2019-11-30 13:00:00 13.8 18 Este 27 Sudeste 0 -- -- 70
2019-11-30 12:00:00 12 20 Este 30 Este 0 -- -- 73
2019-11-30 11:00:00 11.4 23 Este 32 Este 0 -- -- 71
2019-11-30 10:00:00 10.7 22 Este 31 Este 0 -- -- 71
2019-11-30 09:00:00 8.7 19 Este 26 Este 0 -- -- 75
2019-11-30 08:00:00 8.7 19 Este 29 Este 0 -- -- 76
2019-11-30 07:00:00 8.5 17 Este 27 Este 0 -- -- 77
2019-11-30 06:00:00 8.3 19 Este 27 Este 0 -- -- 82
2019-11-30 05:00:00 9.2 17 Este 21 Este 0 -- -- 75
2019-11-30 04:00:00 9.9 13 Nordeste 20 Este 0 -- -- 75
2019-11-30 03:00:00 9.3 12 Nordeste 15 Nordeste 0 -- -- 75
2019-11-30 02:00:00 8.3 11 Nordeste 14 Nordeste 0 -- -- 75
2019-11-30 01:00:00 7.3 13 Nordeste 15 Nordeste 0 -- -- 78
2019-11-30 00:00:00 8.3 9 Nordeste 13 Este 0 -- -- 73
2019-11-29 23:00:00 8.4 9 Nordeste 14 Nordeste 0 -- -- 72
2019-11-29 22:00:00 6.9 12 Nordeste 14 Nordeste 0 -- -- 78
2019-11-29 21:00:00 8.6 8 Nordeste 14 Nordeste 0 -- -- 74
2019-11-29 20:00:00 8.5 8 Nordeste 10 Nordeste 0 -- -- 75
2019-11-29 19:00:00 9.3 9 Este 12 Este 0 -- -- 76
2019-11-29 18:00:00 11.9 6 Noroeste 13 Oeste 0 -- -- 66
2019-11-29 17:00:00 14 7 Noroeste 21 Noroeste 0 -- -- 62
2019-11-29 16:00:00 14.6 14 Oeste 29 Oeste 0 -- -- 60
2019-11-29 15:00:00 14.7 18 Oeste 42 Oeste 0 -- -- 61
2019-11-29 14:00:00 14.5 16 Oeste 26 Oeste 0 -- -- 66
2019-11-29 13:00:00 13.2 14 Oeste 28 Oeste 0 -- -- 74
2019-11-29 12:00:00 12.5 16 Oeste 27 Oeste 0 -- -- 77
2019-11-29 11:00:00 12.2 13 Oeste 26 Noroeste 0 -- -- 75
2019-11-29 10:00:00 11.4 13 Noroeste 26 Noroeste 0 -- -- 77
2019-11-29 09:00:00 11.6 14 Noroeste 24 Noroeste 0 -- -- 79
2019-11-29 08:00:00 11.7 16 Noroeste 28 Noroeste 0 -- -- 86
2019-11-29 07:00:00 12.1 12 Noroeste 39 Oeste 0 -- -- 81
2019-11-29 06:00:00 12.8 17 Noroeste 29 Noroeste 0 -- -- 79
2019-11-29 05:00:00 10.8 4 Este 17 Nordeste 0 -- -- 83
2019-11-29 04:00:00 11.7 5 Nordeste 12 Nordeste 0 -- -- 79
2019-11-29 03:00:00 11.9 9 Oeste 14 Oeste 0 -- -- 80
2019-11-29 02:00:00 12.2 11 Oeste 17 Oeste 0 -- -- 77
2019-11-29 01:00:00 12.2 9 Oeste 14 Oeste 0 -- -- 76
2019-11-29 00:00:00 11.8 9 Noroeste 20 Oeste 0 -- -- 76
2019-11-28 23:00:00 11.9 15 Noroeste 23 Oeste 0 -- -- 75
2019-11-28 22:00:00 12.1 14 Oeste 24 Oeste 0 -- -- 75
2019-11-28 21:00:00 12.5 18 Oeste 30 Sudoeste 0 -- -- 71
2019-11-28 20:00:00 12.1 12 Oeste 38 Sudoeste 0.2 -- -- 74
2019-11-28 19:00:00 12.9 24 Sudoeste 35 Sudoeste 0 -- -- 68
2019-11-28 18:00:00 13.1 21 Sudoeste 35 Sudoeste 0 -- -- 68
2019-11-28 17:00:00 13.4 21 Oeste 33 Sudoeste 0 -- -- 69
2019-11-28 16:00:00 13.9 14 Sudoeste 30 Oeste 0 -- -- 69
2019-11-28 15:00:00 14.1 18 Noroeste 35 Oeste 0 -- -- 69
2019-11-28 14:00:00 14.5 22 Oeste 30 Oeste 0 -- -- 70
2019-11-28 13:00:00 13.9 15 Oeste 27 Oeste 0 -- -- 73
2019-11-28 12:00:00 13.5 15 Oeste 22 Oeste 0 -- -- 71
2019-11-28 11:00:00 12.8 12 Oeste 19 Sudoeste 0 -- -- 73
2019-11-28 10:00:00 11.2 10 Oeste 20 Sudoeste 0 -- -- 79
2019-11-28 09:00:00 8.5 3 Este 8 Nordeste 0 -- -- 87
2019-11-28 08:00:00 8.1 5 Este 8 Nordeste 0 -- -- 86
2019-11-28 07:00:00 8.6 6 Este 8 Nordeste 0 -- -- 83
2019-11-28 06:00:00 9.5 6 Oeste 12 Oeste 0 -- -- 80
2019-11-28 05:00:00 9.5 8 Oeste 14 Oeste 0 -- -- 79
2019-11-28 04:00:00 9.3 3 Oeste 18 Oeste 0 -- -- 80
2019-11-28 03:00:00 9.3 3 Noroeste 13 Noroeste 0 -- -- 79
2019-11-28 02:00:00 9.6 8 Noroeste 15 Oeste 0 -- -- 79
2019-11-28 01:00:00 9.6 6 Oeste 12 Oeste 0 -- -- 81
2019-11-28 00:00:00 9.5 0 Calma 25 Oeste 0 -- -- 84
2019-11-27 23:00:00 10.7 15 Oeste 23 Oeste 0 -- -- 77
2019-11-27 22:00:00 10.3 0 Calma 8 Sudeste 0 -- -- 80
2019-11-27 21:00:00 9.9 4 Este 9 Este 0 -- -- 85
2019-11-27 20:00:00 10.5 5 Sudeste 27 Noroeste 0.2 -- -- 81
2019-11-27 19:00:00 12.2 18 Noroeste 42 Oeste 0 -- -- 67
2019-11-27 18:00:00 12.5 21 Oeste 37 Oeste 0 -- -- 64
2019-11-27 17:00:00 12 17 Oeste 39 Oeste 0 -- -- 71
2019-11-27 16:00:00 12.9 26 Oeste 43 Oeste 0 -- -- 64
2019-11-27 15:00:00 13.3 33 Oeste 48 Oeste 0 -- -- 63
2019-11-27 14:00:00 13 22 Oeste 31 Oeste 0 -- -- 67
2019-11-27 06:00:00 -- -- -- -- -- -- -- -- --
2019-11-27 05:00:00 10.3 17 Oeste 35 Oeste 0 -- -- 79
2019-11-27 04:00:00 11.3 35 Oeste 52 Oeste 0 -- -- 77
2019-11-27 03:00:00 11.4 26 Oeste 35 Oeste 0.2 -- -- 84
2019-11-27 02:00:00 12.5 7 Oeste 12 Noroeste 0.2 -- -- 88
2019-11-27 01:00:00 11.9 5 Este 15 Este 1.2 -- -- 91
2019-11-27 00:00:00 11.6 10 Este 15 Este 2.6 -- -- 91
2019-11-26 23:00:00 13.1 8 Sur 30 Sudoeste 1 -- -- 81
2019-11-26 22:00:00 15.5 19 Sudoeste 38 Sudoeste 0 -- -- 68
2019-11-26 21:00:00 12.3 12 Este 27 Este 0 -- -- 83
2019-11-26 20:00:00 12 12 Este 18 Este 0.2 -- -- 86
2019-11-26 19:00:00 12.7 8 Sudeste 15 Sudeste 0 -- -- 81
2019-11-26 18:00:00 12.9 9 Este 17 Este 0 -- -- 78
2019-11-26 17:00:00 14.1 14 Este 21 Este 0 -- -- 75
2019-11-26 16:00:00 15.7 10 Sudeste 21 Sudeste 0 -- -- 69
2019-11-26 15:00:00 15.5 8 Sur 13 Sur 0 -- -- 68
2019-11-26 14:00:00 15.3 9 Sur 18 Sur 0 -- -- 68
2019-11-26 13:00:00 16.1 5 Sudoeste 13 Sudoeste 0 -- -- 64
2019-11-26 12:00:00 15.5 8 Sur 20 Este 0 -- -- 65
2019-11-26 11:00:00 14 13 Este 19 Este 0 -- -- 71
2019-11-26 10:00:00 11.2 13 Este 18 Este 0 -- -- 79
2019-11-26 09:00:00 9.7 10 Este 17 Nordeste 0 -- -- 83
2019-11-26 08:00:00 8.6 10 Nordeste 18 Este 0 -- -- 87
2019-11-26 07:00:00 7.7 9 Este 17 Nordeste 0 -- -- 88
2019-11-26 06:00:00 7.9 10 Nordeste 18 Nordeste 0 -- -- 90
2019-11-26 05:00:00 7.7 9 Nordeste 15 Este 0 -- -- 87
2019-11-26 04:00:00 8 8 Nordeste 12 Nordeste 0 -- -- 83
2019-11-26 03:00:00 8.5 9 Este 13 Este 0 -- -- 87
2019-11-26 02:00:00 8.5 10 Nordeste 14 Este 0 -- -- 88
2019-11-26 01:00:00 9.9 0 Calma 11 Nordeste 0 -- -- 85
2019-11-26 00:00:00 9.1 7 Nordeste 13 Nordeste 0 -- -- 91
2019-11-25 23:00:00 9.3 11 Nordeste 14 Este 0 -- -- 91
2019-11-25 22:00:00 9 8 Nordeste 12 Nordeste 0 -- -- 92
2019-11-25 21:00:00 9 9 Nordeste 10 Nordeste 0 -- -- 91
2019-11-25 20:00:00 9.7 2 Norte 10 Nordeste 0 -- -- 90
2019-11-25 19:00:00 9.8 4 Este 9 Oeste 0 -- -- 89
2019-11-25 18:00:00 11.5 8 Oeste 12 Oeste 0 -- -- 83
2019-11-25 17:00:00 12.5 9 Oeste 13 Oeste 0 -- -- 81
2019-11-25 16:00:00 14.3 8 Oeste 26 Oeste 0 -- -- 72
2019-11-25 15:00:00 14.6 15 Oeste 27 Oeste 0 -- -- 68
2019-11-25 14:00:00 14.6 13 Noroeste 27 Oeste 0 -- -- 70
2019-11-25 13:00:00 13.5 11 Oeste 24 Oeste 0 -- -- 77
2019-11-25 12:00:00 11.2 8 Oeste 13 Oeste 0 -- -- 81
2019-11-25 11:00:00 9.8 7 Oeste 10 Oeste 0 -- -- 82
2019-11-25 10:00:00 8.7 4 Oeste 6 Oeste 0 -- -- 86
2019-11-25 09:00:00 5.8 7 Este 12 Este 0 -- -- 93
2019-11-25 08:00:00 5.9 9 Nordeste 12 Nordeste 0 -- -- 92
2019-11-25 07:00:00 6.6 8 Este 12 Nordeste 0 -- -- 92
2019-11-25 06:00:00 7 7 Este 10 Este 0 -- -- 92
2019-11-25 05:00:00 6.8 7 Este 10 Sudeste 0 -- -- 91
2019-11-25 04:00:00 6.7 3 Este 7 Este 0 -- -- 92
2019-11-25 03:00:00 6.8 5 Este 8 Nordeste 0 -- -- 92
2019-11-25 02:00:00 6.6 0 Calma 10 Nordeste 0 -- -- 92
2019-11-25 01:00:00 6.3 5 Este 9 Nordeste 0 -- -- 90
2019-11-25 00:00:00 6.4 5 Este 8 Este 1 -- -- 87
2019-11-24 23:00:00 6.9 6 Nordeste 12 Este 0 -- -- 80
2019-11-24 22:00:00 4.9 7 Este 12 Este 0 -- -- 88
2019-11-24 21:00:00 5.1 7 Nordeste 12 Nordeste 0 -- -- 89
2019-11-24 20:00:00 5.9 5 Este 9 Oeste 0 -- -- 85
2019-11-24 19:00:00 7.1 7 Oeste 18 Oeste 0 -- -- 84
2019-11-24 18:00:00 8.1 15 Oeste 21 Noroeste 0 -- -- 80
2019-11-24 17:00:00 9.4 12 Noroeste 31 Oeste 0 -- -- 73
2019-11-24 16:00:00 10.2 21 Oeste 38 Oeste 0 -- -- 71
2019-11-24 15:00:00 9.5 22 Noroeste 41 Oeste 0 -- -- 73
2019-11-24 14:00:00 8.9 29 Noroeste 44 Noroeste 0 -- -- 73
2019-11-24 13:00:00 8.9 26 Oeste 41 Oeste 0 -- -- 75
2019-11-24 12:00:00 7.9 17 Oeste 41 Oeste 0 -- -- 81
2019-11-24 11:00:00 7.3 18 Oeste 31 Oeste 0 -- -- 79
2019-11-24 10:00:00 7.3 21 Oeste 35 Noroeste 0 -- -- 79
2019-11-24 09:00:00 6.8 18 Oeste 29 Noroeste 0 -- -- 80
2019-11-24 08:00:00 5.4 15 Oeste 37 Oeste 0 -- -- 87
2019-11-24 07:00:00 6.4 21 Oeste 37 Noroeste 0 -- -- 83
2019-11-24 06:00:00 6.5 17 Noroeste 31 Noroeste 0 -- -- 82
2019-11-24 05:00:00 6 19 Oeste 34 Noroeste 0 -- -- 84
2019-11-24 04:00:00 6.6 20 Noroeste 34 Oeste 0 -- -- 80
2019-11-24 03:00:00 6.5 21 Oeste 43 Oeste 0 -- -- 81
2019-11-24 02:00:00 7.1 22 Noroeste 40 Oeste 0 -- -- 77
2019-11-24 01:00:00 6.7 12 Noroeste 30 Oeste 0 -- -- 80
2019-11-24 00:00:00 7.7 22 Noroeste 38 Noroeste 0 -- -- 75
2019-11-23 23:00:00 7 22 Noroeste 49 Oeste 0 -- -- 78
2019-11-23 22:00:00 7.2 30 Oeste 48 Oeste 0 -- -- 79
2019-11-23 21:00:00 7 28 Noroeste 40 Oeste 0 -- -- 82
2019-11-23 20:00:00 7.1 20 Noroeste 38 Oeste 0 -- -- 82
2019-11-23 19:00:00 7 21 Oeste 42 Noroeste 0 -- -- 84
2019-11-23 18:00:00 7.5 24 Oeste 43 Noroeste 0 -- -- 81
2019-11-23 17:00:00 8.7 34 Noroeste 69 Oeste 0 -- -- 74
2019-11-23 16:00:00 9 33 Oeste 54 Noroeste 0 -- -- 74
2019-11-23 15:00:00 8.2 35 Oeste 68 Oeste 0 -- -- 73
2019-11-23 14:00:00 8.3 30 Oeste 62 Oeste 0 -- -- 73
2019-11-23 13:00:00 8.7 40 Oeste 67 Oeste 0 -- -- 73
2019-11-23 12:00:00 7.9 31 Oeste 51 Oeste 0 -- -- 80
2019-11-23 11:00:00 7 17 Noroeste 34 Noroeste 0 -- -- 88
2019-11-23 10:00:00 6.6 17 Noroeste 31 Noroeste 0.6 -- -- 93
2019-11-23 09:00:00 6.4 7 Oeste 23 Noroeste 0.6 -- -- 93
2019-11-23 08:00:00 6.6 12 Noroeste 27 Noroeste 2 -- -- 92
2019-11-23 07:00:00 7.4 21 Oeste 30 Oeste 0 -- -- 81
2019-11-23 06:00:00 7.4 16 Oeste 24 Oeste 0 -- -- 81
2019-11-23 05:00:00 8.6 17 Oeste 24 Oeste 0 -- -- 76
2019-11-23 04:00:00 8.9 8 Oeste 23 Sudoeste 0 -- -- 79
2019-11-23 03:00:00 8.8 3 Sudeste 10 Este 0 -- -- 80
2019-11-23 02:00:00 8.5 3 Este 9 Nordeste 0 -- -- 81
2019-11-23 01:00:00 8.6 3 Noroeste 12 Sur 0 -- -- 80
2019-11-23 00:00:00 8.9 6 Noroeste 23 Oeste 0 -- -- 82
2019-11-22 23:00:00 9 3 Sudoeste 22 Sudoeste 0.4 -- -- 89
2019-11-22 22:00:00 9.1 3 Este 31 Noroeste 2 -- -- 94
2019-11-22 21:00:00 8.7 23 Este 39 Sudeste 0 -- -- 95
2019-11-22 20:00:00 8.7 30 Este 44 Este 0 -- -- 95
2019-11-22 19:00:00 8.5 28 Este 44 Este 0.2 -- -- 95
2019-11-22 18:00:00 8.1 29 Este 44 Este 0.6 -- -- 95
2019-11-22 17:00:00 7.9 31 Este 51 Este 0.2 -- -- 94
2019-11-22 16:00:00 7.6 35 Este 53 Este 0.2 -- -- 94
2019-11-22 15:00:00 7.5 37 Este 51 Este 0 -- -- 93
2019-11-22 14:00:00 7 35 Este 55 Este 0 -- -- 93
2019-11-22 13:00:00 6.6 34 Este 49 Este 0 -- -- 93
2019-11-22 12:00:00 6.4 32 Este 42 Este 0.4 -- -- 93
2019-11-22 11:00:00 6.1 30 Este 39 Este 0.6 -- -- 92
2019-11-22 10:00:00 5.9 24 Este 37 Este 0.2 -- -- 88
2019-11-22 09:00:00 6 26 Este 39 Este 0 -- -- 85
2019-11-22 08:00:00 6.2 16 Este 30 Este 0 -- -- 83
2019-11-22 07:00:00 5.6 20 Este 26 Este 0 -- -- 85
2019-11-22 06:00:00 5.1 18 Este 24 Este 0 -- -- 87
2019-11-22 05:00:00 5.4 18 Este 23 Este 0 -- -- 85
2019-11-22 04:00:00 5.9 12 Nordeste 21 Nordeste 0 -- -- 84
2019-11-22 03:00:00 5.5 12 Este 21 Este 0 -- -- 84
2019-11-22 02:00:00 6.5 12 Este 18 Este 0 -- -- 82
2019-11-22 01:00:00 5.9 11 Este 21 Este 0 -- -- 85
2019-11-22 00:00:00 6.8 13 Nordeste 18 Este 0 -- -- 82
2019-11-21 23:00:00 7.2 14 Este 19 Nordeste 0 -- -- 81
2019-11-21 22:00:00 6.9 10 Este 18 Este 0 -- -- 83
2019-11-21 21:00:00 7.3 12 Este 17 Este 0 -- -- 81
2019-11-21 20:00:00 7.5 13 Este 20 Este 0 -- -- 82
2019-11-21 19:00:00 8.4 8 Nordeste 16 Nordeste 0 -- -- 76
2019-11-21 18:00:00 8.7 12 Este 18 Este 0 -- -- 77
2019-11-21 17:00:00 10.1 8 Este 19 Sudeste 0 -- -- 72
2019-11-21 16:00:00 11.5 8 Sur 19 Oeste 0 -- -- 64
2019-11-21 15:00:00 11 8 Sudoeste 18 Sudoeste 0 -- -- 65
2019-11-21 14:00:00 11.4 9 Sudoeste 20 Sudoeste 0 -- -- 65
2019-11-21 13:00:00 10.8 9 Sudoeste 23 Oeste 0 -- -- 68
2019-11-21 12:00:00 9.6 14 Sudoeste 24 Sudoeste 0 -- -- 70
2019-11-21 11:00:00 8.6 7 Sudeste 18 Este 0 -- -- 81
2019-11-21 10:00:00 5.9 8 Este 20 Este 0 -- -- 91
2019-11-21 09:00:00 4.3 10 Este 16 Nordeste 0 -- -- 93
2019-11-21 08:00:00 -- -- -- -- -- -- -- -- --
2019-11-21 07:00:00 -- -- -- -- -- -- -- -- --
2019-11-21 06:00:00 -- -- -- -- -- -- -- -- --
2019-11-21 05:00:00 -- -- -- -- -- -- -- -- --
2019-11-21 04:00:00 -- -- -- -- -- -- -- -- --
2019-11-21 03:00:00 -- -- -- -- -- -- -- -- --
2019-11-21 02:00:00 -- -- -- -- -- -- -- -- --
2019-11-21 01:00:00 -- -- -- -- -- -- -- -- --
2019-11-21 00:00:00 -- -- -- -- -- -- -- -- --
2019-11-20 23:00:00 -- -- -- -- -- -- -- -- --
2019-11-20 22:00:00 -- -- -- -- -- -- -- -- --
2019-11-20 21:00:00 -- -- -- -- -- -- -- -- --
2019-11-20 20:00:00 -- -- -- -- -- -- -- -- --
2019-11-20 19:00:00 6.6 23 Este 31 Este 0 -- -- 71
2019-11-20 18:00:00 6.8 20 Este 30 Este 0 -- -- 72
2019-11-20 17:00:00 7.4 24 Este 32 Este 0 -- -- 72
2019-11-20 16:00:00 8.2 21 Este 36 Este 0 -- -- 70
2019-11-20 15:00:00 8.7 22 Este 31 Este 0 -- -- 68
2019-11-20 14:00:00 8.4 22 Este 31 Este 0 -- -- 69
2019-11-20 13:00:00 8 21 Este 33 Este 0 -- -- 70
2019-11-20 12:00:00 7.8 19 Este 30 Este 0 -- -- 71
2019-11-20 11:00:00 5.7 16 Este 26 Este 0 -- -- 77
2019-11-20 10:00:00 4.1 15 Este 23 Este 0 -- -- 85
2019-11-20 09:00:00 2.4 20 Este 24 Este 0 -- -- 87
2019-11-20 08:00:00 1.8 16 Este 21 Este 0 -- -- 88
2019-11-20 07:00:00 2.5 16 Este 20 Este 0 -- -- 87
2019-11-20 06:00:00 2.6 14 Este 21 Este 0 -- -- 87
2019-11-20 05:00:00 2.8 14 Nordeste 19 Este 0 -- -- 86
2019-11-20 04:00:00 2.4 17 Este 20 Este 0 -- -- 87
2019-11-20 03:00:00 2.9 14 Este 22 Este 0 -- -- 87
2019-11-20 02:00:00 3 15 Este 19 Este 0 -- -- 86
2019-11-20 01:00:00 3 12 Nordeste 14 Nordeste 0 -- -- 86
2019-11-20 00:00:00 3.6 10 Nordeste 16 Nordeste 0 -- -- 84
2019-11-19 23:00:00 3.4 11 Nordeste 14 Nordeste 0 -- -- 88
2019-11-19 22:00:00 2.9 12 Nordeste 13 Nordeste 0 -- -- 85
2019-11-19 21:00:00 3.8 9 Nordeste 13 Nordeste 0 -- -- 85
2019-11-19 20:00:00 3 11 Este 14 Este 0 -- -- 83
2019-11-19 19:00:00 4.3 7 Este 13 Noroeste 0 -- -- 80
2019-11-19 18:00:00 6.7 4 Noroeste 8 Noroeste 0 -- -- 72
2019-11-19 17:00:00 8.5 3 Oeste 23 Noroeste 0 -- -- 66
2019-11-19 16:00:00 9.2 15 Oeste 33 Oeste 0 -- -- 62
2019-11-19 15:00:00 9.3 27 Oeste 36 Oeste 0 -- -- 66
2019-11-19 14:00:00 9.3 19 Oeste 41 Oeste 0 -- -- 62
2019-11-19 13:00:00 7.9 18 Noroeste 40 Oeste 0 -- -- 65
2019-11-19 12:00:00 6.8 26 Oeste 37 Oeste 0 -- -- 73
2019-11-19 11:00:00 6.1 22 Oeste 32 Noroeste 0 -- -- 79
2019-11-19 10:00:00 5.3 18 Noroeste 33 Oeste 0 -- -- 78
2019-11-19 09:00:00 3 16 Oeste 35 Oeste 0 -- -- 88
2019-11-19 08:00:00 3.1 21 Oeste 33 Oeste 0 -- -- 84
2019-11-19 07:00:00 2.3 11 Oeste 26 Oeste 0 -- -- 86
2019-11-19 06:00:00 4.2 18 Noroeste 43 Noroeste 0 -- -- 75
2019-11-19 05:00:00 4.3 21 Noroeste 40 Noroeste 0 -- -- 76
2019-11-19 04:00:00 3.5 23 Oeste 37 Oeste 0 -- -- 77
2019-11-19 03:00:00 3.4 16 Oeste 42 Oeste 0 -- -- 78
2019-11-19 02:00:00 3.7 17 Oeste 39 Oeste 0 -- -- 74
2019-11-19 01:00:00 3.6 14 Oeste 37 Oeste 0 -- -- 75
2019-11-19 00:00:00 3.4 13 Oeste 41 Oeste 0 -- -- 78
2019-11-18 23:00:00 4 22 Noroeste 40 Noroeste 0 -- -- 74
2019-11-18 22:00:00 3.8 22 Oeste 41 Oeste 0 -- -- 77
2019-11-18 21:00:00 4.2 20 Oeste 38 Noroeste 0 -- -- 75
2019-11-18 20:00:00 4.3 21 Noroeste 41 Oeste 0 -- -- 76
2019-11-18 19:00:00 4.4 17 Noroeste 35 Oeste 0 -- -- 73
2019-11-18 18:00:00 4.9 19 Noroeste 42 Oeste 0 -- -- 69
2019-11-18 17:00:00 6.3 22 Noroeste 46 Noroeste 0 -- -- 65
2019-11-18 16:00:00 7.9 24 Noroeste 49 Noroeste 0 -- -- 59
2019-11-18 15:00:00 7.7 24 Noroeste 46 Noroeste 0 -- -- 61
2019-11-18 14:00:00 8.3 18 Noroeste 43 Noroeste 0 -- -- 65
2019-11-18 13:00:00 8.3 25 Noroeste 50 Noroeste 0 -- -- 63
2019-11-18 12:00:00 7 26 Noroeste 48 Noroeste 0 -- -- 68
2019-11-18 11:00:00 5.9 20 Noroeste 42 Oeste 0 -- -- 75
2019-11-18 10:00:00 5 24 Noroeste 43 Noroeste 0 -- -- 80
2019-11-18 09:00:00 4 24 Oeste 39 Noroeste 0 -- -- 84
2019-11-18 08:00:00 3.8 19 Oeste 39 Oeste 0 -- -- 87
2019-11-18 07:00:00 3.7 23 Oeste 38 Oeste 0 -- -- 92
2019-11-18 06:00:00 3.9 24 Oeste 44 Oeste 0 -- -- 95
2019-11-18 05:00:00 4.3 22 Oeste 42 Oeste 0 -- -- 94
2019-11-18 04:00:00 4.7 21 Oeste 42 Oeste 0 -- -- 96
2019-11-18 03:00:00 5 14 Oeste 22 Oeste 0 -- -- 97
2019-11-18 02:00:00 4.7 11 Oeste 22 Sudoeste 1.2 -- -- 96
2019-11-18 01:00:00 3.7 4 Este 11 Norte 0 -- -- 96
2019-11-18 00:00:00 4 6 Este 9 Este 0 -- -- 96
2019-11-17 23:00:00 5 0 Calma 8 Este 0 -- -- 94
2019-11-17 22:00:00 5.7 2 Sudoeste 6 Nordeste 0 -- -- 94
2019-11-17 21:00:00 6 3 Noroeste 11 Noroeste 0.8 -- -- 94
2019-11-17 20:00:00 6.1 4 Noroeste 11 Oeste 0 -- -- 95
2019-11-17 19:00:00 6.1 5 Oeste 8 Oeste 0 -- -- 94
2019-11-17 18:00:00 6.2 3 Noroeste 8 Oeste 0 -- -- 93
2019-11-17 17:00:00 6.5 7 Oeste 16 Noroeste 0.2 -- -- 91
2019-11-17 16:00:00 7.1 4 Noroeste 10 Noroeste 0.6 -- -- 87
2019-11-17 15:00:00 7.9 6 Oeste 16 Sudoeste 0 -- -- 77
2019-11-17 14:00:00 8.7 12 Sudoeste 18 Noroeste 0 -- -- 73
2019-11-17 13:00:00 8.3 16 Oeste 25 Oeste 0 -- -- 73
2019-11-17 12:00:00 7.1 12 Oeste 27 Oeste 0 -- -- 76
2019-11-17 11:00:00 6 18 Oeste 24 Oeste 0 -- -- 80
2019-11-17 10:00:00 4.4 11 Oeste 19 Oeste 0 -- -- 85
2019-11-17 09:00:00 3.7 10 Oeste 15 Oeste 0 -- -- 88
2019-11-17 08:00:00 2.9 8 Oeste 25 Oeste 0 -- -- 87
2019-11-17 07:00:00 2.9 10 Oeste 14 Noroeste 0 -- -- 85
2019-11-17 06:00:00 2.2 9 Oeste 18 Oeste 0 -- -- 89
2019-11-17 05:00:00 2.7 10 Oeste 15 Oeste 0 -- -- 87
2019-11-17 04:00:00 2.7 12 Oeste 17 Oeste 0 -- -- 87
2019-11-17 03:00:00 3.3 14 Oeste 24 Oeste 0 -- -- 86
2019-11-17 02:00:00 3.7 15 Oeste 28 Oeste 0 -- -- 82
2019-11-17 01:00:00 5.6 20 Oeste 35 Oeste 0 -- -- 72
2019-11-17 00:00:00 4.9 15 Noroeste 24 Noroeste 0 -- -- 77
2019-11-16 23:00:00 3.6 9 Oeste 17 Noroeste 0 -- -- 83
2019-11-16 22:00:00 4 9 Oeste 21 Noroeste 0 -- -- 82
2019-11-16 21:00:00 4.1 9 Noroeste 18 Oeste 0 -- -- 83
2019-11-16 20:00:00 4.6 8 Noroeste 13 Noroeste 0 -- -- 83
2019-11-16 19:00:00 4 0 Calma 4 Oeste 0 -- -- 81
2019-11-16 18:00:00 5 2 Noroeste 12 Oeste 0 -- -- 76
2019-11-16 17:00:00 5.7 6 Oeste 15 Noroeste 0 -- -- 75
2019-11-16 16:00:00 6 2 Sudeste 19 Noroeste 0 -- -- 79
2019-11-16 15:00:00 5.3 0 Calma 9 Noroeste 0 -- -- 82
2019-11-16 14:00:00 4.9 8 Noroeste 30 Noroeste 0 -- -- 81
2019-11-16 13:00:00 5.1 7 Oeste 13 Sudoeste 0 -- -- 75
2019-11-16 12:00:00 5.3 10 Oeste 23 Noroeste 0 -- -- 73
2019-11-16 11:00:00 5 12 Oeste 27 Noroeste 0 -- -- 74
2019-11-16 10:00:00 5.1 14 Noroeste 29 Noroeste 0 -- -- 73
2019-11-16 09:00:00 3.7 19 Noroeste 33 Noroeste 0 -- -- 80
2019-11-16 08:00:00 2.6 18 Noroeste 33 Noroeste 0 -- -- 84
2019-11-16 07:00:00 1.2 8 Oeste 30 Noroeste 0 -- -- 93
2019-11-16 06:00:00 2.4 19 Noroeste 33 Noroeste 0 -- -- 85
2019-11-16 05:00:00 2.2 17 Noroeste 32 Noroeste 0 -- -- 90
2019-11-16 04:00:00 1.9 19 Oeste 32 Noroeste 0 -- -- 95
2019-11-16 03:00:00 1.3 14 Oeste 27 Oeste 0 -- -- 96
2019-11-16 02:00:00 1.7 16 Oeste 25 Oeste 0 -- -- 95
2019-11-16 01:00:00 1 13 Oeste 21 Noroeste 0 -- -- 95
2019-11-16 00:00:00 1.3 15 Oeste 23 Oeste 0 -- -- 94
2019-11-15 23:00:00 2.9 19 Oeste 33 Oeste 0 -- -- 87
2019-11-15 22:00:00 3.3 13 Noroeste 31 Noroeste 0 -- -- 87
2019-11-15 21:00:00 3.1 16 Noroeste 35 Noroeste 0 -- -- 90
2019-11-15 20:00:00 3.3 19 Oeste 31 Noroeste 0 -- -- 89
2019-11-15 19:00:00 3.9 16 Noroeste 34 Oeste 0 -- -- 86
2019-11-15 18:00:00 4.3 17 Noroeste 36 Oeste 0 -- -- 86
2019-11-15 17:00:00 5.1 19 Noroeste 46 Oeste 0 -- -- 81
2019-11-15 16:00:00 6 26 Oeste 53 Oeste 0 -- -- 78
2019-11-15 15:00:00 6.5 27 Oeste 58 Oeste 0 -- -- 76
2019-11-15 14:00:00 5.9 23 Oeste 48 Oeste 0 -- -- 84
2019-11-15 13:00:00 6.4 22 Oeste 32 Oeste 0 -- -- 76
2019-11-15 12:00:00 6.3 14 Oeste 23 Sudoeste 0 -- -- 75
2019-11-15 11:00:00 5 7 Oeste 16 Oeste 0 -- -- 81
2019-11-15 10:00:00 3.9 6 Oeste 9 Oeste 0 -- -- 86
2019-11-15 09:00:00 2.4 6 Este 9 Este 0 -- -- 92
2019-11-15 08:00:00 1.6 3 Norte 9 Norte 0 -- -- 90
2019-11-15 07:00:00 2 0 Calma 11 Noroeste 0 -- -- 87
2019-11-15 06:00:00 3.1 10 Noroeste 21 Noroeste 0 -- -- 83
2019-11-15 05:00:00 3.1 13 Noroeste 26 Oeste 0 -- -- 86
2019-11-15 04:00:00 3.1 17 Noroeste 35 Noroeste 0 -- -- 89
2019-11-15 03:00:00 3 13 Oeste 25 Oeste 0 -- -- 92
2019-11-15 02:00:00 3.3 12 Oeste 19 Noroeste 0 -- -- 93
2019-11-15 01:00:00 2.7 8 Oeste 16 Oeste 0 -- -- 92
2019-11-15 00:00:00 3.7 12 Noroeste 23 Oeste 0 -- -- 88
2019-11-14 23:00:00 4.1 14 Noroeste 24 Noroeste 0 -- -- 86
2019-11-14 22:00:00 4.4 7 Oeste 10 Oeste 0 -- -- 85
2019-11-14 21:00:00 4.4 5 Nordeste 12 Nordeste 0 -- -- 83
2019-11-14 20:00:00 3.3 10 Nordeste 15 Este 0 -- -- 89
2019-11-14 19:00:00 3.4 10 Nordeste 13 Este 0 -- -- 88
2019-11-14 18:00:00 5.8 4 Este 9 Oeste 0 -- -- 77
2019-11-14 17:00:00 7.5 8 Oeste 21 Oeste 0 -- -- 72
2019-11-14 16:00:00 8.1 16 Oeste 23 Oeste 0 -- -- 73
2019-11-14 15:00:00 8.1 12 Oeste 20 Oeste 0 -- -- 74
2019-11-14 14:00:00 7.1 14 Oeste 26 Oeste 0 -- -- 76
2019-11-14 13:00:00 6 17 Oeste 27 Oeste 0 -- -- 82
2019-11-14 12:00:00 4.2 22 Oeste 28 Oeste 0 -- -- 92
2019-11-14 11:00:00 3.7 19 Oeste 27 Oeste 0 -- -- 94
2019-11-14 10:00:00 3.3 21 Oeste 27 Oeste 0 -- -- 94
2019-11-14 09:00:00 3.2 13 Oeste 28 Noroeste 0.2 -- -- 91
2019-11-14 08:00:00 3.3 17 Oeste 58 Noroeste 2.4 -- -- 92
2019-11-14 07:00:00 4.9 34 Noroeste 53 Noroeste 1.4 -- -- 89
2019-11-14 06:00:00 7.8 6 Oeste 22 Oeste 1 -- -- 83
2019-11-14 05:00:00 8.7 16 Oeste 50 Oeste 0 -- -- 74
2019-11-14 04:00:00 8.6 24 Oeste 32 Oeste 0 -- -- 73
2019-11-14 03:00:00 8.5 18 Oeste 37 Oeste 0 -- -- 75
2019-11-14 02:00:00 10 32 Oeste 44 Oeste 0 -- -- 70
2019-11-14 01:00:00 7.5 12 Este 19 Este 0 -- -- 79
2019-11-14 00:00:00 7.6 16 Este 25 Este 0 -- -- 76
2019-11-13 23:00:00 7 13 Este 18 Este 0 -- -- 77
2019-11-13 22:00:00 6.9 10 Nordeste 18 Este 0 -- -- 77
2019-11-13 21:00:00 5.9 10 Nordeste 14 Nordeste 0 -- -- 81
2019-11-13 20:00:00 6.4 6 Este 10 Noroeste 0 -- -- 79
2019-11-13 19:00:00 7.9 3 Sudoeste 13 Noroeste 0 -- -- 76
2019-11-13 18:00:00 9 9 Noroeste 29 Oeste 0 -- -- 73
2019-11-13 17:00:00 10.6 15 Noroeste 33 Noroeste 0 -- -- 68
2019-11-13 16:00:00 10.3 12 Noroeste 42 Oeste 0 -- -- 66
2019-11-13 15:00:00 11.4 22 Oeste 41 Oeste 0 -- -- 68
2019-11-13 14:00:00 11.2 18 Noroeste 38 Oeste 0 -- -- 70
2019-11-13 13:00:00 10.4 17 Oeste 37 Oeste 0 -- -- 76
2019-11-13 12:00:00 10.3 25 Oeste 37 Oeste 0 -- -- 84
2019-11-13 11:00:00 8.7 23 Oeste 40 Noroeste 0 -- -- 91
2019-11-13 10:00:00 7.2 25 Noroeste 49 Noroeste 0 -- -- 96
2019-11-13 09:00:00 6.8 24 Oeste 43 Oeste 0.4 -- -- 96
2019-11-13 08:00:00 6.8 22 Oeste 37 Noroeste 1.8 -- -- 95
2019-11-13 07:00:00 6.9 12 Noroeste 21 Noroeste 0.8 -- -- 93
2019-11-13 06:00:00 7.1 5 Noroeste 8 Noroeste 0.2 -- -- 92
2019-11-13 05:00:00 6.9 2 Nordeste 9 Nordeste 0.2 -- -- 92
2019-11-13 04:00:00 6.7 6 Nordeste 10 Este 0 -- -- 92
2019-11-13 03:00:00 7.1 8 Nordeste 10 Nordeste 0 -- -- 89
2019-11-13 02:00:00 7 7 Nordeste 11 Este 0 -- -- 89
2019-11-13 01:00:00 6.8 7 Este 9 Este 0 -- -- 90
2019-11-13 00:00:00 7.1 2 Noroeste 6 Noroeste 0 -- -- 86
2019-11-12 23:00:00 7 5 Oeste 10 Oeste 0 -- -- 86
2019-11-12 22:00:00 7.6 0 Calma 11 Noroeste 0 -- -- 82
2019-11-12 21:00:00 7.2 5 Oeste 17 Noroeste 0 -- -- 84
2019-11-12 20:00:00 7 4 Oeste 21 Oeste 0 -- -- 83
2019-11-12 19:00:00 9 14 Noroeste 26 Noroeste 0 -- -- 73
2019-11-12 18:00:00 9.3 11 Noroeste 26 Oeste 0 -- -- 73
2019-11-12 17:00:00 9.7 21 Oeste 33 Oeste 0 -- -- 72
2019-11-12 16:00:00 9.6 18 Noroeste 37 Oeste 0 -- -- 73
2019-11-12 15:00:00 9.1 19 Oeste 48 Oeste 0 -- -- 74
2019-11-12 14:00:00 9.1 22 Oeste 41 Oeste 0 -- -- 75
2019-11-12 13:00:00 8.8 28 Oeste 46 Oeste 0 -- -- 73
2019-11-12 12:00:00 8 22 Oeste 46 Oeste 0 -- -- 79
2019-11-12 11:00:00 7.4 22 Oeste 43 Oeste 0 -- -- 81
2019-11-12 10:00:00 7 27 Oeste 44 Oeste 0 -- -- 81
2019-11-12 09:00:00 6.2 25 Oeste 41 Oeste 0 -- -- 85
2019-11-12 08:00:00 6 20 Noroeste 40 Oeste 0 -- -- 85
2019-11-12 07:00:00 5.9 19 Noroeste 35 Oeste 0 -- -- 85
2019-11-12 06:00:00 6 18 Noroeste 41 Oeste 0 -- -- 84
2019-11-12 05:00:00 5.6 22 Noroeste 45 Oeste 0 -- -- 85
2019-11-12 04:00:00 5.1 23 Noroeste 43 Oeste 0 -- -- 86
2019-11-12 03:00:00 5.2 23 Oeste 42 Oeste 0 -- -- 84
2019-11-12 02:00:00 5.2 23 Noroeste 39 Noroeste 0 -- -- 85
2019-11-12 01:00:00 5.4 21 Noroeste 37 Oeste 0 -- -- 84
2019-11-12 00:00:00 5.2 17 Oeste 35 Oeste 0 -- -- 87
2019-11-11 23:00:00 4.7 15 Oeste 36 Oeste 0 -- -- 89
2019-11-11 22:00:00 5.4 16 Oeste 30 Oeste 0 -- -- 87
2019-11-11 21:00:00 6.1 19 Oeste 42 Oeste 0 -- -- 84
2019-11-11 20:00:00 6.5 19 Oeste 38 Oeste 0 -- -- 79
2019-11-11 19:00:00 6.5 26 Oeste 53 Oeste 0 -- -- 86
2019-11-11 18:00:00 7.5 28 Oeste 49 Oeste 0 -- -- 82
2019-11-11 17:00:00 8.1 26 Oeste 51 Noroeste 0 -- -- 91
2019-11-11 16:00:00 7.2 26 Oeste 46 Oeste 0.2 -- -- 95
2019-11-11 15:00:00 7.2 19 Oeste 31 Oeste 0 -- -- 95
2019-11-11 14:00:00 7 18 Oeste 36 Oeste 0.2 -- -- 94
2019-11-11 13:00:00 7.1 23 Oeste 40 Noroeste 0 -- -- 90
2019-11-11 12:00:00 7.5 24 Oeste 44 Oeste 0 -- -- 86
2019-11-11 11:00:00 7.3 24 Oeste 39 Noroeste 0 -- -- 80
2019-11-11 10:00:00 6.3 16 Oeste 30 Noroeste 0 -- -- 84
2019-11-11 09:00:00 3.9 8 Oeste 25 Oeste 0 -- -- 93
2019-11-11 08:00:00 3.8 15 Oeste 35 Oeste 0 -- -- 89
2019-11-11 07:00:00 4.9 15 Oeste 30 Oeste 0 -- -- 86
2019-11-11 06:00:00 4.1 21 Oeste 34 Noroeste 0 -- -- 88
2019-11-11 05:00:00 3.3 16 Oeste 29 Oeste 0 -- -- 93
2019-11-11 04:00:00 3.6 21 Oeste 34 Oeste 0 -- -- 88
2019-11-11 03:00:00 4.2 17 Noroeste 37 Noroeste 0 -- -- 85
2019-11-11 02:00:00 3.8 23 Noroeste 44 Oeste 0 -- -- 87
2019-11-11 01:00:00 3.5 22 Oeste 43 Oeste 0 -- -- 88
2019-11-11 00:00:00 3.3 27 Oeste 47 Oeste 0 -- -- 90